Wolfeboro, New Hampshire
Current Conditions -  °F | °C
As of 8:35 PM on Friday 19 Dec 2014 (Local Time) from KLCI Reporting Station
Clear Clear  
Wind Chill: 17°   Ceiling: Unl
Heat Index: 25°   Visibility: 10mi
Dew Point: 18°   Wind: 7mph
Humidity: 74%   Direction: 240°WSW
Pressure: 30.06"   Gusts: NA
Location:  43.58°N, 71.2°W
Report Text: KLCI 200135Z AUTO 24006KT 10SM CLR M04/M08 A3006 RMK AO1
Loading
Personal Weather Stations






























Interactive Weather Map New forecast layout! Learn more

10-Day Weather Forecast

Advertisements
Track Severe Weather on mobile